Terminal Aerodrome Forecast
Issued by NWS

Home | Current Version | Previous Version | Text Only | Print | Product List | Glossary On
Versions: 1 2 3 4 5 6 7 8 9 10 11 12 13 14 15 16
000
FTUS45 KVEF 061720
TAFBIH
TAF
KBIH 061720Z 0618/0718 16006KT P6SM FEW120
     FM062000 17012G20KT P6SM SCT100 BKN150
      TEMPO 0623/0703 VRB12G20KT P6SM -TSRA SCT100CB BKN150
     FM070300 35008KT P6SM SCT150=

USA.gov is the U.S. government's official web portal to all federal, state and local government web resources and services.